sensor_id;sensor_type;location;lat;lon;timestamp;temperature;humidity
39033;DHT22;24794;51.982;5.878;2023-02-01T00:00:50;5.90;99.90
39033;DHT22;24794;51.982;5.878;2023-02-01T00:01:51;5.90;99.90
39033;DHT22;24794;51.982;5.878;2023-02-01T00:02:52;6.00;99.90
39033;DHT22;24794;51.982;5.878;2023-02-01T00:03:52;6.00;99.90
39033;DHT22;24794;51.982;5.878;2023-02-01T00:04:53;6.00;99.90
39033;DHT22;24794;51.982;5.878;2023-02-01T00:06:00;6.00;99.90
39033;DHT22;24794;51.982;5.878;2023-02-01T00:07:00;5.90;99.90
39033;DHT22;24794;51.982;5.878;2023-02-01T00:08:01;5.90;99.90
39033;DHT22;24794;51.982;5.878;2023-02-01T00:09:02;5.90;99.90
39033;DHT22;24794;51.982;5.878;2023-02-01T00:10:04;5.90;99.90
39033;DHT22;24794;51.982;5.878;2023-02-01T00:11:07;5.90;99.90
39033;DHT22;24794;51.982;5.878;2023-02-01T00:12:08;5.90;99.90
39033;DHT22;24794;51.982;5.878;2023-02-01T00:13:09;5.80;99.90
39033;DHT22;24794;51.982;5.878;2023-02-01T00:14:09;5.90;99.90
39033;DHT22;24794;51.982;5.878;2023-02-01T00:15:10;5.80;99.90
39033;DHT22;24794;51.982;5.878;2023-02-01T00:16:16;5.80;99.90
39033;DHT22;24794;51.982;5.878;2023-02-01T00:17:17;5.80;99.90
39033;DHT22;24794;51.982;5.878;2023-02-01T00:18:18;5.80;99.90
39033;DHT22;24794;51.982;5.878;2023-02-01T00:19:18;5.80;99.90
39033;DHT22;24794;51.982;5.878;2023-02-01T00:20:19;5.80;99.90
39033;DHT22;24794;51.982;5.878;2023-02-01T00:21:20;5.80;99.90
39033;DHT22;24794;51.982;5.878;2023-02-01T00:22:21;5.80;99.90
39033;DHT22;24794;51.982;5.878;2023-02-01T00:23:22;5.70;99.90
39033;DHT22;24794;51.982;5.878;2023-02-01T00:24:22;5.70;99.90
39033;DHT22;24794;51.982;5.878;2023-02-01T00:25:23;5.70;99.90
39033;DHT22;24794;51.982;5.878;2023-02-01T00:26:38;5.70;99.90
39033;DHT22;24794;51.982;5.878;2023-02-01T00:27:39;5.70;99.90
39033;DHT22;24794;51.982;5.878;2023-02-01T00:28:39;5.70;99.90
39033;DHT22;24794;51.982;5.878;2023-02-01T00:29:40;5.70;99.90
39033;DHT22;24794;51.982;5.878;2023-02-01T00:30:41;5.70;99.90
39033;DHT22;24794;51.982;5.878;2023-02-01T00:31:42;5.70;99.90
39033;DHT22;24794;51.982;5.878;2023-02-01T00:32:43;5.70;99.90
39033;DHT22;24794;51.982;5.878;2023-02-01T00:33:47;5.60;99.90
39033;DHT22;24794;51.982;5.878;2023-02-01T00:34:47;5.60;99.90
39033;DHT22;24794;51.982;5.878;2023-02-01T00:35:48;5.60;99.90
39033;DHT22;24794;51.982;5.878;2023-02-01T00:36:48;5.60;99.90
39033;DHT22;24794;51.982;5.878;2023-02-01T00:37:49;5.60;99.90
39033;DHT22;24794;51.982;5.878;2023-02-01T00:38:50;5.60;99.90
39033;DHT22;24794;51.982;5.878;2023-02-01T00:39:50;5.60;99.90
39033;DHT22;24794;51.982;5.878;2023-02-01T00:40:51;5.60;99.90
39033;DHT22;24794;51.982;5.878;2023-02-01T00:41:51;5.60;99.90
39033;DHT22;24794;51.982;5.878;2023-02-01T00:42:52;5.60;99.90
39033;DHT22;24794;51.982;5.878;2023-02-01T00:43:53;5.60;99.90
39033;DHT22;24794;51.982;5.878;2023-02-01T00:44:54;5.60;99.90
39033;DHT22;24794;51.982;5.878;2023-02-01T00:45:54;5.60;99.90
39033;DHT22;24794;51.982;5.878;2023-02-01T00:46:55;5.60;99.90
39033;DHT22;24794;51.982;5.878;2023-02-01T00:47:55;5.60;99.90
39033;DHT22;24794;51.982;5.878;2023-02-01T00:48:56;5.60;99.90
39033;DHT22;24794;51.982;5.878;2023-02-01T00:49:57;5.60;99.90
39033;DHT22;24794;51.982;5.878;2023-02-01T00:51:03;5.70;99.90
39033;DHT22;24794;51.982;5.878;2023-02-01T00:52:04;5.60;99.90
39033;DHT22;24794;51.982;5.878;2023-02-01T00:53:05;5.70;99.90
39033;DHT22;24794;51.982;5.878;2023-02-01T00:54:05;5.70;99.90
39033;DHT22;24794;51.982;5.878;2023-02-01T00:55:06;5.70;99.90
39033;DHT22;24794;51.982;5.878;2023-02-01T00:56:08;5.70;99.90
39033;DHT22;24794;51.982;5.878;2023-02-01T00:57:08;5.70;99.90
39033;DHT22;24794;51.982;5.878;2023-02-01T00:58:09;5.70;99.90
39033;DHT22;24794;51.982;5.878;2023-02-01T00:59:12;5.70;99.90
39033;DHT22;24794;51.982;5.878;2023-02-01T01:00:13;5.70;99.90
39033;DHT22;24794;51.982;5.878;2023-02-01T01:01:20;5.70;99.90
39033;DHT22;24794;51.982;5.878;2023-02-01T01:02:20;5.80;99.90
39033;DHT22;24794;51.982;5.878;2023-02-01T01:03:21;5.80;99.90
39033;DHT22;24794;51.982;5.878;2023-02-01T01:04:21;5.80;99.90
39033;DHT22;24794;51.982;5.878;2023-02-01T01:05:22;5.80;99.90
39033;DHT22;24794;51.982;5.878;2023-02-01T01:06:27;5.90;99.90
39033;DHT22;24794;51.982;5.878;2023-02-01T01:07:28;5.90;99.90
39033;DHT22;24794;51.982;5.878;2023-02-01T01:08:29;5.90;99.90
39033;DHT22;24794;51.982;5.878;2023-02-01T01:09:30;5.90;99.90
39033;DHT22;24794;51.982;5.878;2023-02-01T01:10:30;5.90;99.90
39033;DHT22;24794;51.982;5.878;2023-02-01T01:11:34;5.90;99.90
39033;DHT22;24794;51.982;5.878;2023-02-01T01:12:35;6.00;99.90
39033;DHT22;24794;51.982;5.878;2023-02-01T01:13:36;6.00;99.90
39033;DHT22;24794;51.982;5.878;2023-02-01T01:14:36;6.00;99.90
39033;DHT22;24794;51.982;5.878;2023-02-01T01:15:38;6.00;99.90
39033;DHT22;24794;51.982;5.878;2023-02-01T01:16:38;6.00;99.90
39033;DHT22;24794;51.982;5.878;2023-02-01T01:17:39;6.00;99.90
39033;DHT22;24794;51.982;5.878;2023-02-01T01:18:40;6.00;99.90
39033;DHT22;24794;51.982;5.878;2023-02-01T01:19:41;6.00;99.90
39033;DHT22;24794;51.982;5.878;2023-02-01T01:20:41;6.00;99.90
39033;DHT22;24794;51.982;5.878;2023-02-01T01:21:42;6.10;99.90
39033;DHT22;24794;51.982;5.878;2023-02-01T01:22:43;6.10;99.90
39033;DHT22;24794;51.982;5.878;2023-02-01T01:23:44;6.10;99.90
39033;DHT22;24794;51.982;5.878;2023-02-01T01:24:45;6.00;99.90
39033;DHT22;24794;51.982;5.878;2023-02-01T01:25:46;6.00;99.90
39033;DHT22;24794;51.982;5.878;2023-02-01T01:26:46;6.00;99.90
39033;DHT22;24794;51.982;5.878;2023-02-01T01:27:47;6.10;99.90
39033;DHT22;24794;51.982;5.878;2023-02-01T01:28:48;6.00;99.90
39033;DHT22;24794;51.982;5.878;2023-02-01T01:29:49;6.00;99.90
39033;DHT22;24794;51.982;5.878;2023-02-01T01:30:50;6.00;99.90
39033;DHT22;24794;51.982;5.878;2023-02-01T01:31:50;6.00;99.90
39033;DHT22;24794;51.982;5.878;2023-02-01T01:32:52;6.00;99.90
39033;DHT22;24794;51.982;5.878;2023-02-01T01:33:54;6.00;99.90
39033;DHT22;24794;51.982;5.878;2023-02-01T01:34:55;5.90;99.90
39033;DHT22;24794;51.982;5.878;2023-02-01T01:35:56;5.90;99.90
39033;DHT22;24794;51.982;5.878;2023-02-01T01:36:56;5.90;99.90
39033;DHT22;24794;51.982;5.878;2023-02-01T01:37:58;5.90;99.90
39033;DHT22;24794;51.982;5.878;2023-02-01T01:38:59;5.80;99.90
39033;DHT22;24794;51.982;5.878;2023-02-01T01:40:00;5.90;99.90
39033;DHT22;24794;51.982;5.878;2023-02-01T01:41:01;5.90;99.90
39033;DHT22;24794;51.982;5.878;2023-02-01T01:42:01;5.80;99.90
39033;DHT22;24794;51.982;5.878;2023-02-01T01:43:02;5.80;99.90
39033;DHT22;24794;51.982;5.878;2023-02-01T01:44:05;5.80;99.90
39033;DHT22;24794;51.982;5.878;2023-02-01T01:45:07;5.80;99.90
39033;DHT22;24794;51.982;5.878;2023-02-01T01:46:10;5.80;99.90
39033;DHT22;24794;51.982;5.878;2023-02-01T01:47:15;5.80;99.90
39033;DHT22;24794;51.982;5.878;2023-02-01T01:48:34;5.80;99.90
39033;DHT22;24794;51.982;5.878;2023-02-01T01:49:35;5.80;99.90
39033;DHT22;24794;51.982;5.878;2023-02-01T01:50:41;5.80;99.90
39033;DHT22;24794;51.982;5.878;2023-02-01T01:51:52;5.80;99.90
39033;DHT22;24794;51.982;5.878;2023-02-01T01:52:56;5.80;99.90
39033;DHT22;24794;51.982;5.878;2023-02-01T01:54:04;5.80;99.90
39033;DHT22;24794;51.982;5.878;2023-02-01T01:55:07;5.80;99.90
39033;DHT22;24794;51.982;5.878;2023-02-01T01:56:08;5.80;99.90
39033;DHT22;24794;51.982;5.878;2023-02-01T01:57:18;5.70;99.90
39033;DHT22;24794;51.982;5.878;2023-02-01T01:58:24;5.70;99.90
39033;DHT22;24794;51.982;5.878;2023-02-01T01:59:26;5.70;99.90
39033;DHT22;24794;51.982;5.878;2023-02-01T02:00:27;5.70;99.90
39033;DHT22;24794;51.982;5.878;2023-02-01T02:01:28;5.70;99.90
39033;DHT22;24794;51.982;5.878;2023-02-01T02:02:29;5.70;99.90
39033;DHT22;24794;51.982;5.878;2023-02-01T02:03:34;5.70;99.90
39033;DHT22;24794;51.982;5.878;2023-02-01T02:04:37;5.70;99.90
39033;DHT22;24794;51.982;5.878;2023-02-01T02:05:38;5.70;99.90
39033;DHT22;24794;51.982;5.878;2023-02-01T02:06:44;5.70;99.90
39033;DHT22;24794;51.982;5.878;2023-02-01T02:07:49;5.70;99.90
39033;DHT22;24794;51.982;5.878;2023-02-01T02:08:50;5.70;99.90
39033;DHT22;24794;51.982;5.878;2023-02-01T02:09:51;5.70;99.90
39033;DHT22;24794;51.982;5.878;2023-02-01T02:10:53;5.70;99.90
39033;DHT22;24794;51.982;5.878;2023-02-01T02:11:59;5.70;99.90
39033;DHT22;24794;51.982;5.878;2023-02-01T02:13:00;5.70;99.90
39033;DHT22;24794;51.982;5.878;2023-02-01T02:14:01;5.70;99.90
39033;DHT22;24794;51.982;5.878;2023-02-01T02:15:04;5.70;99.90
39033;DHT22;24794;51.982;5.878;2023-02-01T02:17:47;5.70;99.90
39033;DHT22;24794;51.982;5.878;2023-02-01T02:20:16;5.70;99.90
39033;DHT22;24794;51.982;5.878;2023-02-01T02:22:35;5.70;99.90
39033;DHT22;24794;51.982;5.878;2023-02-01T02:23:55;5.70;99.90
39033;DHT22;24794;51.982;5.878;2023-02-01T02:37:38;5.80;99.90
39033;DHT22;24794;51.982;5.878;2023-02-01T02:43:14;5.70;99.90
39033;DHT22;24794;51.982;5.878;2023-02-01T02:44:55;5.70;99.90
39033;DHT22;24794;51.982;5.878;2023-02-01T02:46:41;5.70;99.90
39033;DHT22;24794;51.982;5.878;2023-02-01T02:49:36;5.60;99.90
39033;DHT22;24794;51.982;5.878;2023-02-01T02:50:50;5.60;99.90
39033;DHT22;24794;51.982;5.878;2023-02-01T02:52:16;5.60;99.90
39033;DHT22;24794;51.982;5.878;2023-02-01T02:55:18;5.60;99.90
39033;DHT22;24794;51.982;5.878;2023-02-01T02:56:23;5.60;99.90
39033;DHT22;24794;51.982;5.878;2023-02-01T02:57:44;5.60;99.90
39033;DHT22;24794;51.982;5.878;2023-02-01T02:59:04;5.50;99.90
39033;DHT22;24794;51.982;5.878;2023-02-01T03:00:29;5.60;99.90
39033;DHT22;24794;51.982;5.878;2023-02-01T03:01:49;5.50;99.90
39033;DHT22;24794;51.982;5.878;2023-02-01T03:03:09;5.50;99.90
39033;DHT22;24794;51.982;5.878;2023-02-01T03:04:28;5.50;99.90
39033;DHT22;24794;51.982;5.878;2023-02-01T03:05:35;5.50;99.90
39033;DHT22;24794;51.982;5.878;2023-02-01T03:06:37;5.50;99.90
39033;DHT22;24794;51.982;5.878;2023-02-01T03:08:45;5.40;99.90
39033;DHT22;24794;51.982;5.878;2023-02-01T03:09:47;5.50;99.90
39033;DHT22;24794;51.982;5.878;2023-02-01T03:12:00;5.50;99.90
39033;DHT22;24794;51.982;5.878;2023-02-01T03:14:41;5.50;99.90
39033;DHT22;24794;51.982;5.878;2023-02-01T03:16:24;5.50;99.90
39033;DHT22;24794;51.982;5.878;2023-02-01T03:17:31;5.50;99.90
39033;DHT22;24794;51.982;5.878;2023-02-01T03:19:43;5.50;99.90
39033;DHT22;24794;51.982;5.878;2023-02-01T03:20:51;5.50;99.90
39033;DHT22;24794;51.982;5.878;2023-02-01T03:21:59;5.50;99.90
39033;DHT22;24794;51.982;5.878;2023-02-01T03:23:01;5.50;99.90
39033;DHT22;24794;51.982;5.878;2023-02-01T03:25:35;5.50;99.90
39033;DHT22;24794;51.982;5.878;2023-02-01T03:26:38;5.50;99.90
39033;DHT22;24794;51.982;5.878;2023-02-01T03:28:03;5.50;99.90
39033;DHT22;24794;51.982;5.878;2023-02-01T03:29:15;5.60;99.90
39033;DHT22;24794;51.982;5.878;2023-02-01T03:30:21;5.60;99.90
39033;DHT22;24794;51.982;5.878;2023-02-01T03:31:23;5.60;99.90
39033;DHT22;24794;51.982;5.878;2023-02-01T03:32:24;5.60;99.90
39033;DHT22;24794;51.982;5.878;2023-02-01T03:33:26;5.60;99.90
39033;DHT22;24794;51.982;5.878;2023-02-01T03:34:30;5.60;99.90
39033;DHT22;24794;51.982;5.878;2023-02-01T03:37:12;5.60;99.90
39033;DHT22;24794;51.982;5.878;2023-02-01T03:40:39;5.60;99.90
39033;DHT22;24794;51.982;5.878;2023-02-01T03:41:45;5.60;99.90
39033;DHT22;24794;51.982;5.878;2023-02-01T03:42:51;5.60;99.90
39033;DHT22;24794;51.982;5.878;2023-02-01T03:45:26;5.60;99.90
39033;DHT22;24794;51.982;5.878;2023-02-01T03:46:39;5.70;99.90
39033;DHT22;24794;51.982;5.878;2023-02-01T03:47:45;5.70;99.90
39033;DHT22;24794;51.982;5.878;2023-02-01T03:48:48;5.70;99.90
39033;DHT22;24794;51.982;5.878;2023-02-01T03:50:09;5.80;99.90
39033;DHT22;24794;51.982;5.878;2023-02-01T03:51:11;5.80;99.90
39033;DHT22;24794;51.982;5.878;2023-02-01T03:52:16;5.80;99.90
39033;DHT22;24794;51.982;5.878;2023-02-01T03:53:21;5.80;99.90
39033;DHT22;24794;51.982;5.878;2023-02-01T03:54:24;5.90;99.90
39033;DHT22;24794;51.982;5.878;2023-02-01T03:55:27;5.90;99.90
39033;DHT22;24794;51.982;5.878;2023-02-01T03:56:29;5.90;99.90
39033;DHT22;24794;51.982;5.878;2023-02-01T03:57:35;6.00;99.90
39033;DHT22;24794;51.982;5.878;2023-02-01T03:58:37;6.00;99.90
39033;DHT22;24794;51.982;5.878;2023-02-01T03:59:40;6.10;99.90
39033;DHT22;24794;51.982;5.878;2023-02-01T04:00:54;6.10;99.90
39033;DHT22;24794;51.982;5.878;2023-02-01T04:01:55;6.10;99.90
39033;DHT22;24794;51.982;5.878;2023-02-01T04:02:56;6.10;99.90
39033;DHT22;24794;51.982;5.878;2023-02-01T04:03:57;6.10;99.90
39033;DHT22;24794;51.982;5.878;2023-02-01T04:04:58;6.10;99.90
39033;DHT22;24794;51.982;5.878;2023-02-01T04:05:58;6.10;99.90
39033;DHT22;24794;51.982;5.878;2023-02-01T04:06:59;6.10;99.90
39033;DHT22;24794;51.982;5.878;2023-02-01T04:08:00;6.20;99.90
39033;DHT22;24794;51.982;5.878;2023-02-01T04:09:00;6.10;99.90
39033;DHT22;24794;51.982;5.878;2023-02-01T04:10:03;6.20;99.90
39033;DHT22;24794;51.982;5.878;2023-02-01T04:11:04;6.10;99.90
39033;DHT22;24794;51.982;5.878;2023-02-01T04:12:04;6.10;99.90
39033;DHT22;24794;51.982;5.878;2023-02-01T04:13:05;6.10;99.90
39033;DHT22;24794;51.982;5.878;2023-02-01T04:14:06;6.10;99.90
39033;DHT22;24794;51.982;5.878;2023-02-01T04:15:07;6.10;99.90
39033;DHT22;24794;51.982;5.878;2023-02-01T04:16:07;6.10;99.90
39033;DHT22;24794;51.982;5.878;2023-02-01T04:17:08;6.10;99.90
39033;DHT22;24794;51.982;5.878;2023-02-01T04:18:09;6.10;99.90
39033;DHT22;24794;51.982;5.878;2023-02-01T04:19:09;6.10;99.90
39033;DHT22;24794;51.982;5.878;2023-02-01T04:20:10;6.10;99.90
39033;DHT22;24794;51.982;5.878;2023-02-01T04:21:11;6.10;99.90
39033;DHT22;24794;51.982;5.878;2023-02-01T04:22:11;6.10;99.90
39033;DHT22;24794;51.982;5.878;2023-02-01T04:23:12;6.10;99.90
39033;DHT22;24794;51.982;5.878;2023-02-01T04:24:13;6.10;99.90
39033;DHT22;24794;51.982;5.878;2023-02-01T04:25:13;6.10;99.90
39033;DHT22;24794;51.982;5.878;2023-02-01T04:26:14;6.10;99.90
39033;DHT22;24794;51.982;5.878;2023-02-01T04:27:16;6.10;99.90
39033;DHT22;24794;51.982;5.878;2023-02-01T04:28:17;6.10;99.90
39033;DHT22;24794;51.982;5.878;2023-02-01T04:29:17;6.20;99.90
39033;DHT22;24794;51.982;5.878;2023-02-01T04:30:18;6.20;99.90
39033;DHT22;24794;51.982;5.878;2023-02-01T04:31:19;6.20;99.90
39033;DHT22;24794;51.982;5.878;2023-02-01T04:32:28;6.20;99.90
39033;DHT22;24794;51.982;5.878;2023-02-01T04:33:29;6.20;99.90
39033;DHT22;24794;51.982;5.878;2023-02-01T04:34:30;6.20;99.90
39033;DHT22;24794;51.982;5.878;2023-02-01T04:35:31;6.20;99.90
39033;DHT22;24794;51.982;5.878;2023-02-01T04:36:31;6.20;99.90
39033;DHT22;24794;51.982;5.878;2023-02-01T04:37:32;6.20;99.90
39033;DHT22;24794;51.982;5.878;2023-02-01T04:38:33;6.30;99.90
39033;DHT22;24794;51.982;5.878;2023-02-01T04:39:33;6.30;99.90
39033;DHT22;24794;51.982;5.878;2023-02-01T04:40:34;6.30;99.90
39033;DHT22;24794;51.982;5.878;2023-02-01T04:41:35;6.30;99.90
39033;DHT22;24794;51.982;5.878;2023-02-01T04:42:35;6.30;99.90
39033;DHT22;24794;51.982;5.878;2023-02-01T04:43:36;6.40;99.90
39033;DHT22;24794;51.982;5.878;2023-02-01T04:44:36;6.40;99.90
39033;DHT22;24794;51.982;5.878;2023-02-01T04:45:39;6.50;99.90
39033;DHT22;24794;51.982;5.878;2023-02-01T04:46:41;6.50;99.90
39033;DHT22;24794;51.982;5.878;2023-02-01T04:47:41;6.50;99.90
39033;DHT22;24794;51.982;5.878;2023-02-01T04:48:42;6.50;99.90
39033;DHT22;24794;51.982;5.878;2023-02-01T04:49:43;6.60;99.90
39033;DHT22;24794;51.982;5.878;2023-02-01T04:50:44;6.60;99.90
39033;DHT22;24794;51.982;5.878;2023-02-01T04:51:48;6.60;99.90
39033;DHT22;24794;51.982;5.878;2023-02-01T04:52:49;6.60;99.90
39033;DHT22;24794;51.982;5.878;2023-02-01T04:53:49;6.60;99.90
39033;DHT22;24794;51.982;5.878;2023-02-01T04:54:50;6.60;99.90
39033;DHT22;24794;51.982;5.878;2023-02-01T04:55:50;6.60;99.90
39033;DHT22;24794;51.982;5.878;2023-02-01T04:56:51;6.60;99.90
39033;DHT22;24794;51.982;5.878;2023-02-01T04:57:52;6.60;99.90
39033;DHT22;24794;51.982;5.878;2023-02-01T04:58:52;6.70;99.90
39033;DHT22;24794;51.982;5.878;2023-02-01T04:59:53;6.70;99.90
39033;DHT22;24794;51.982;5.878;2023-02-01T05:00:53;6.70;99.90
39033;DHT22;24794;51.982;5.878;2023-02-01T05:01:54;6.80;99.90
39033;DHT22;24794;51.982;5.878;2023-02-01T05:02:55;6.70;99.90
39033;DHT22;24794;51.982;5.878;2023-02-01T05:03:55;6.80;99.90
39033;DHT22;24794;51.982;5.878;2023-02-01T05:04:56;6.80;99.90
39033;DHT22;24794;51.982;5.878;2023-02-01T05:05:57;6.80;99.90
39033;DHT22;24794;51.982;5.878;2023-02-01T05:06:57;6.80;99.90
39033;DHT22;24794;51.982;5.878;2023-02-01T05:07:58;6.80;99.90
39033;DHT22;24794;51.982;5.878;2023-02-01T05:08:58;6.80;99.90
39033;DHT22;24794;51.982;5.878;2023-02-01T05:09:59;6.80;99.90
39033;DHT22;24794;51.982;5.878;2023-02-01T05:10:59;6.80;99.90
39033;DHT22;24794;51.982;5.878;2023-02-01T05:12:03;6.80;99.90
39033;DHT22;24794;51.982;5.878;2023-02-01T05:13:22;6.80;99.90
39033;DHT22;24794;51.982;5.878;2023-02-01T05:14:41;6.90;99.90
39033;DHT22;24794;51.982;5.878;2023-02-01T05:15:41;6.80;99.90
39033;DHT22;24794;51.982;5.878;2023-02-01T05:16:42;6.80;99.90
39033;DHT22;24794;51.982;5.878;2023-02-01T05:17:43;6.90;99.90
39033;DHT22;24794;51.982;5.878;2023-02-01T05:18:43;6.90;99.90
39033;DHT22;24794;51.982;5.878;2023-02-01T05:19:44;6.90;99.90
39033;DHT22;24794;51.982;5.878;2023-02-01T05:20:44;6.90;99.90
39033;DHT22;24794;51.982;5.878;2023-02-01T05:21:45;6.90;99.90
39033;DHT22;24794;51.982;5.878;2023-02-01T05:22:45;6.90;99.90
39033;DHT22;24794;51.982;5.878;2023-02-01T05:23:46;7.00;99.90
39033;DHT22;24794;51.982;5.878;2023-02-01T05:25:05;7.00;99.90
39033;DHT22;24794;51.982;5.878;2023-02-01T05:26:06;7.00;99.90
39033;DHT22;24794;51.982;5.878;2023-02-01T05:27:07;7.00;99.90
39033;DHT22;24794;51.982;5.878;2023-02-01T05:28:07;7.00;99.90
39033;DHT22;24794;51.982;5.878;2023-02-01T05:29:09;7.00;99.90
39033;DHT22;24794;51.982;5.878;2023-02-01T05:30:10;7.00;99.90
39033;DHT22;24794;51.982;5.878;2023-02-01T05:31:11;7.00;99.90
39033;DHT22;24794;51.982;5.878;2023-02-01T05:32:12;7.00;99.90
39033;DHT22;24794;51.982;5.878;2023-02-01T05:33:12;7.00;99.90
39033;DHT22;24794;51.982;5.878;2023-02-01T05:34:14;7.00;99.90
39033;DHT22;24794;51.982;5.878;2023-02-01T05:35:15;7.00;99.90
39033;DHT22;24794;51.982;5.878;2023-02-01T05:36:15;7.00;99.90
39033;DHT22;24794;51.982;5.878;2023-02-01T05:37:16;7.00;99.90
39033;DHT22;24794;51.982;5.878;2023-02-01T05:38:17;7.00;99.90
39033;DHT22;24794;51.982;5.878;2023-02-01T05:39:17;7.00;99.90
39033;DHT22;24794;51.982;5.878;2023-02-01T05:40:18;7.00;99.90
39033;DHT22;24794;51.982;5.878;2023-02-01T05:41:19;7.00;99.90
39033;DHT22;24794;51.982;5.878;2023-02-01T05:42:19;7.00;99.90
39033;DHT22;24794;51.982;5.878;2023-02-01T05:43:20;7.00;99.90
39033;DHT22;24794;51.982;5.878;2023-02-01T05:44:20;7.00;99.90
39033;DHT22;24794;51.982;5.878;2023-02-01T05:45:21;7.00;99.90
39033;DHT22;24794;51.982;5.878;2023-02-01T05:46:21;7.00;99.90
39033;DHT22;24794;51.982;5.878;2023-02-01T05:47:22;7.00;99.90
39033;DHT22;24794;51.982;5.878;2023-02-01T05:48:23;7.00;99.90
39033;DHT22;24794;51.982;5.878;2023-02-01T05:49:23;7.00;99.90
39033;DHT22;24794;51.982;5.878;2023-02-01T05:50:24;7.00;99.90
39033;DHT22;24794;51.982;5.878;2023-02-01T05:51:24;7.00;99.90
39033;DHT22;24794;51.982;5.878;2023-02-01T05:52:25;7.10;99.90
39033;DHT22;24794;51.982;5.878;2023-02-01T05:53:25;7.00;99.90
39033;DHT22;24794;51.982;5.878;2023-02-01T05:54:26;7.10;99.90
39033;DHT22;24794;51.982;5.878;2023-02-01T05:55:27;7.10;99.90
39033;DHT22;24794;51.982;5.878;2023-02-01T05:56:27;7.10;99.90
39033;DHT22;24794;51.982;5.878;2023-02-01T05:57:28;7.10;99.90
39033;DHT22;24794;51.982;5.878;2023-02-01T05:58:29;7.10;99.90
39033;DHT22;24794;51.982;5.878;2023-02-01T05:59:30;7.10;99.90
39033;DHT22;24794;51.982;5.878;2023-02-01T06:00:31;7.10;99.90
39033;DHT22;24794;51.982;5.878;2023-02-01T06:01:32;7.10;99.90
39033;DHT22;24794;51.982;5.878;2023-02-01T06:02:32;7.10;99.90
39033;DHT22;24794;51.982;5.878;2023-02-01T06:03:33;7.10;99.90
39033;DHT22;24794;51.982;5.878;2023-02-01T06:04:34;7.10;99.90
39033;DHT22;24794;51.982;5.878;2023-02-01T06:05:34;7.10;99.90
39033;DHT22;24794;51.982;5.878;2023-02-01T06:06:35;7.10;99.90
39033;DHT22;24794;51.982;5.878;2023-02-01T06:07:37;7.20;99.90
39033;DHT22;24794;51.982;5.878;2023-02-01T06:08:37;7.10;99.90
39033;DHT22;24794;51.982;5.878;2023-02-01T06:09:40;7.20;99.90
39033;DHT22;24794;51.982;5.878;2023-02-01T06:10:41;7.20;99.90
39033;DHT22;24794;51.982;5.878;2023-02-01T06:11:41;7.10;99.90
39033;DHT22;24794;51.982;5.878;2023-02-01T06:12:42;7.20;99.90
39033;DHT22;24794;51.982;5.878;2023-02-01T06:13:45;7.10;99.90
39033;DHT22;24794;51.982;5.878;2023-02-01T06:14:45;7.20;99.90
39033;DHT22;24794;51.982;5.878;2023-02-01T06:15:46;7.20;99.90
39033;DHT22;24794;51.982;5.878;2023-02-01T06:16:47;7.20;99.90
39033;DHT22;24794;51.982;5.878;2023-02-01T06:17:47;7.20;99.90
39033;DHT22;24794;51.982;5.878;2023-02-01T06:18:48;7.20;99.90
39033;DHT22;24794;51.982;5.878;2023-02-01T06:19:49;7.20;99.90
39033;DHT22;24794;51.982;5.878;2023-02-01T06:20:56;7.20;99.90
39033;DHT22;24794;51.982;5.878;2023-02-01T06:21:57;7.20;99.90
39033;DHT22;24794;51.982;5.878;2023-02-01T06:22:58;7.20;99.90
39033;DHT22;24794;51.982;5.878;2023-02-01T06:23:59;7.20;99.90
39033;DHT22;24794;51.982;5.878;2023-02-01T06:24:59;7.10;99.90
39033;DHT22;24794;51.982;5.878;2023-02-01T06:26:02;7.20;99.90
39033;DHT22;24794;51.982;5.878;2023-02-01T06:27:03;7.20;99.90
39033;DHT22;24794;51.982;5.878;2023-02-01T06:28:04;7.20;99.90
39033;DHT22;24794;51.982;5.878;2023-02-01T06:29:06;7.20;99.90
39033;DHT22;24794;51.982;5.878;2023-02-01T06:30:07;7.10;99.90
39033;DHT22;24794;51.982;5.878;2023-02-01T06:31:08;7.20;99.90
39033;DHT22;24794;51.982;5.878;2023-02-01T06:32:09;7.20;99.90
39033;DHT22;24794;51.982;5.878;2023-02-01T06:33:10;7.20;99.90
39033;DHT22;24794;51.982;5.878;2023-02-01T06:34:10;7.20;99.90
39033;DHT22;24794;51.982;5.878;2023-02-01T06:35:11;7.20;99.90
39033;DHT22;24794;51.982;5.878;2023-02-01T06:36:16;7.20;99.90
39033;DHT22;24794;51.982;5.878;2023-02-01T06:37:19;7.20;99.90
39033;DHT22;24794;51.982;5.878;2023-02-01T06:38:19;7.20;99.90
39033;DHT22;24794;51.982;5.878;2023-02-01T06:39:20;7.20;99.90
39033;DHT22;24794;51.982;5.878;2023-02-01T06:40:21;7.20;99.90
39033;DHT22;24794;51.982;5.878;2023-02-01T06:41:22;7.20;99.90
39033;DHT22;24794;51.982;5.878;2023-02-01T06:42:23;7.20;99.90
39033;DHT22;24794;51.982;5.878;2023-02-01T06:43:25;7.20;99.90
39033;DHT22;24794;51.982;5.878;2023-02-01T06:44:26;7.20;99.90
39033;DHT22;24794;51.982;5.878;2023-02-01T06:45:26;7.20;99.90
39033;DHT22;24794;51.982;5.878;2023-02-01T06:46:27;7.20;99.90
39033;DHT22;24794;51.982;5.878;2023-02-01T06:47:27;7.20;99.90
39033;DHT22;24794;51.982;5.878;2023-02-01T06:48:28;7.20;99.90
39033;DHT22;24794;51.982;5.878;2023-02-01T06:49:29;7.20;99.90
39033;DHT22;24794;51.982;5.878;2023-02-01T06:50:29;7.20;99.90
39033;DHT22;24794;51.982;5.878;2023-02-01T06:51:30;7.20;99.90
39033;DHT22;24794;51.982;5.878;2023-02-01T06:52:30;7.20;99.90
39033;DHT22;24794;51.982;5.878;2023-02-01T06:53:31;7.20;99.90
39033;DHT22;24794;51.982;5.878;2023-02-01T06:54:32;7.20;99.90
39033;DHT22;24794;51.982;5.878;2023-02-01T06:55:33;7.30;99.90
39033;DHT22;24794;51.982;5.878;2023-02-01T06:56:34;7.30;99.90
39033;DHT22;24794;51.982;5.878;2023-02-01T06:57:35;7.30;99.90
39033;DHT22;24794;51.982;5.878;2023-02-01T06:58:36;7.20;99.90
39033;DHT22;24794;51.982;5.878;2023-02-01T06:59:37;7.30;99.90
39033;DHT22;24794;51.982;5.878;2023-02-01T07:00:38;7.30;99.90
39033;DHT22;24794;51.982;5.878;2023-02-01T07:01:39;7.30;99.90
39033;DHT22;24794;51.982;5.878;2023-02-01T07:02:39;7.20;99.90
39033;DHT22;24794;51.982;5.878;2023-02-01T07:03:40;7.20;99.90
39033;DHT22;24794;51.982;5.878;2023-02-01T07:04:41;7.30;99.90
39033;DHT22;24794;51.982;5.878;2023-02-01T07:05:41;7.30;99.90
39033;DHT22;24794;51.982;5.878;2023-02-01T07:06:42;7.20;99.90
39033;DHT22;24794;51.982;5.878;2023-02-01T07:07:43;7.20;99.90
39033;DHT22;24794;51.982;5.878;2023-02-01T07:08:44;7.20;99.90
39033;DHT22;24794;51.982;5.878;2023-02-01T07:09:44;7.20;99.90
39033;DHT22;24794;51.982;5.878;2023-02-01T07:10:45;7.20;99.90
39033;DHT22;24794;51.982;5.878;2023-02-01T07:11:46;7.20;99.90
39033;DHT22;24794;51.982;5.878;2023-02-01T07:12:46;7.20;99.90
39033;DHT22;24794;51.982;5.878;2023-02-01T07:13:47;7.20;99.90
39033;DHT22;24794;51.982;5.878;2023-02-01T07:14:48;7.20;99.90
39033;DHT22;24794;51.982;5.878;2023-02-01T07:15:48;7.20;99.90
39033;DHT22;24794;51.982;5.878;2023-02-01T07:16:49;7.20;99.90
39033;DHT22;24794;51.982;5.878;2023-02-01T07:17:50;7.20;99.90
39033;DHT22;24794;51.982;5.878;2023-02-01T07:18:51;7.20;99.90
39033;DHT22;24794;51.982;5.878;2023-02-01T07:19:52;7.20;99.90